Verona, Pennsylvania
Current Conditions -  °F | °C
As of 2:53 AM on Tuesday 21 Oct 2014 (Local Time) from KAGC Reporting Station
Light Rain Light Rain  
Wind Chill: 47°   Ceiling: 4900
Heat Index: 49°   Visibility: 5mi
Dew Point: 45°   Wind: 6mph
Humidity: 86%   Direction: 210°SSW
Pressure: 29.84"   Gusts: NA
Location:  40.51°N, 79.84°W
Report Text: KAGC 210653Z 21005KT 5SM -RA BR FEW022 BKN049 OVC070 09/07 A2984 RMK AO2 RAB10 SLP111 P0001 T00940072
Loading
Personal Weather Stations






























Interactive Weather Map
Tropical Storm Tracking
New forecast layout! Learn more

10-Day Weather Forecast

Advertisements
Track Severe Weather on mobile